Allerton, Iowa
Current Conditions -  °F | °C
As of 1:55 AM on Friday 31 Oct 2014 (Local Time) from KCNC Reporting Station
Overcast Overcast  
Wind Chill: 34°   Ceiling: 3100
Heat Index: 43°   Visibility: 10mi
Dew Point: 32°   Wind: 21mph
Humidity: 66%   Direction: 350°N
Pressure: 30.27"   Gusts: 31mph
Location:  40.71°N, 93.37°W
Report Text: KCNC 310655Z AUTO 35018G27KT 10SM OVC031 06/00 A3027 RMK AO2
Loading
Personal Weather Stations






























Interactive Weather Map
Tropical Storm Tracking
New forecast layout! Learn more

10-Day Weather Forecast

Advertisements
Track Severe Weather on mobile